sensor_id;sensor_type;location;lat;lon;timestamp;P1;durP1;ratioP1;P2;durP2;ratioP2
27977;SDS011;15314;49.248;6.968;2022-12-31T00:00:36;6.10;;;5.60;;
27977;SDS011;15314;49.248;6.968;2022-12-31T00:01:39;6.88;;;6.28;;
27977;SDS011;15314;49.248;6.968;2022-12-31T00:02:39;8.20;;;6.43;;
27977;SDS011;15314;49.248;6.968;2022-12-31T00:03:40;6.85;;;6.55;;
27977;SDS011;15314;49.248;6.968;2022-12-31T00:04:41;7.80;;;7.18;;
27977;SDS011;15314;49.248;6.968;2022-12-31T00:05:42;8.68;;;8.10;;
27977;SDS011;15314;49.248;6.968;2022-12-31T00:06:43;7.78;;;7.15;;
27977;SDS011;15314;49.248;6.968;2022-12-31T00:07:43;7.95;;;7.28;;
27977;SDS011;15314;49.248;6.968;2022-12-31T00:08:44;8.05;;;7.35;;
27977;SDS011;15314;49.248;6.968;2022-12-31T00:09:45;8.02;;;7.50;;
27977;SDS011;15314;49.248;6.968;2022-12-31T00:10:46;8.52;;;7.82;;
27977;SDS011;15314;49.248;6.968;2022-12-31T00:11:46;9.20;;;8.35;;
27977;SDS011;15314;49.248;6.968;2022-12-31T00:12:47;8.05;;;7.47;;
27977;SDS011;15314;49.248;6.968;2022-12-31T00:13:48;8.63;;;7.88;;
27977;SDS011;15314;49.248;6.968;2022-12-31T00:14:49;8.63;;;7.82;;
27977;SDS011;15314;49.248;6.968;2022-12-31T00:15:49;8.55;;;7.78;;
27977;SDS011;15314;49.248;6.968;2022-12-31T00:16:50;8.27;;;7.60;;
27977;SDS011;15314;49.248;6.968;2022-12-31T00:17:51;8.70;;;7.93;;
27977;SDS011;15314;49.248;6.968;2022-12-31T00:18:52;8.40;;;7.90;;
27977;SDS011;15314;49.248;6.968;2022-12-31T00:19:55;8.20;;;7.70;;
27977;SDS011;15314;49.248;6.968;2022-12-31T00:20:55;10.05;;;8.13;;
27977;SDS011;15314;49.248;6.968;2022-12-31T00:21:56;8.82;;;8.13;;
27977;SDS011;15314;49.248;6.968;2022-12-31T00:22:56;9.63;;;8.73;;
27977;SDS011;15314;49.248;6.968;2022-12-31T00:23:57;8.75;;;8.02;;
27977;SDS011;15314;49.248;6.968;2022-12-31T00:24:58;8.82;;;8.23;;
27977;SDS011;15314;49.248;6.968;2022-12-31T00:26:02;8.93;;;8.23;;
27977;SDS011;15314;49.248;6.968;2022-12-31T00:27:04;8.00;;;7.40;;
27977;SDS011;15314;49.248;6.968;2022-12-31T00:28:05;7.53;;;7.10;;
27977;SDS011;15314;49.248;6.968;2022-12-31T00:29:05;7.78;;;7.25;;
27977;SDS011;15314;49.248;6.968;2022-12-31T00:30:06;7.47;;;7.03;;
27977;SDS011;15314;49.248;6.968;2022-12-31T00:31:11;7.97;;;7.47;;
27977;SDS011;15314;49.248;6.968;2022-12-31T00:32:13;7.80;;;7.05;;
27977;SDS011;15314;49.248;6.968;2022-12-31T00:33:13;7.75;;;7.15;;
27977;SDS011;15314;49.248;6.968;2022-12-31T00:34:14;7.88;;;7.28;;
27977;SDS011;15314;49.248;6.968;2022-12-31T00:35:15;8.07;;;7.47;;
27977;SDS011;15314;49.248;6.968;2022-12-31T00:36:19;8.40;;;7.68;;
27977;SDS011;15314;49.248;6.968;2022-12-31T00:37:22;8.68;;;7.88;;
27977;SDS011;15314;49.248;6.968;2022-12-31T00:38:22;8.52;;;8.00;;
27977;SDS011;15314;49.248;6.968;2022-12-31T00:39:23;8.40;;;7.75;;
27977;SDS011;15314;49.248;6.968;2022-12-31T00:40:23;10.10;;;8.32;;
27977;SDS011;15314;49.248;6.968;2022-12-31T00:41:25;8.98;;;8.27;;
27977;SDS011;15314;49.248;6.968;2022-12-31T00:42:26;8.38;;;7.88;;
27977;SDS011;15314;49.248;6.968;2022-12-31T00:43:27;8.40;;;7.80;;
27977;SDS011;15314;49.248;6.968;2022-12-31T00:44:27;8.55;;;7.90;;
27977;SDS011;15314;49.248;6.968;2022-12-31T00:45:28;8.50;;;7.90;;
27977;SDS011;15314;49.248;6.968;2022-12-31T00:46:29;8.88;;;8.07;;
27977;SDS011;15314;49.248;6.968;2022-12-31T00:47:30;8.25;;;7.50;;
27977;SDS011;15314;49.248;6.968;2022-12-31T00:48:31;8.23;;;7.63;;
27977;SDS011;15314;49.248;6.968;2022-12-31T00:49:32;9.07;;;8.38;;
27977;SDS011;15314;49.248;6.968;2022-12-31T00:50:33;9.32;;;8.63;;
27977;SDS011;15314;49.248;6.968;2022-12-31T00:51:33;8.82;;;8.23;;
27977;SDS011;15314;49.248;6.968;2022-12-31T00:52:34;9.77;;;9.18;;
27977;SDS011;15314;49.248;6.968;2022-12-31T00:53:34;9.18;;;8.50;;
27977;SDS011;15314;49.248;6.968;2022-12-31T00:54:35;9.85;;;8.95;;
27977;SDS011;15314;49.248;6.968;2022-12-31T00:55:36;9.07;;;8.27;;
27977;SDS011;15314;49.248;6.968;2022-12-31T00:56:36;9.30;;;8.50;;
27977;SDS011;15314;49.248;6.968;2022-12-31T00:57:37;9.43;;;8.73;;
27977;SDS011;15314;49.248;6.968;2022-12-31T00:58:38;11.27;;;9.13;;
27977;SDS011;15314;49.248;6.968;2022-12-31T00:59:39;9.80;;;8.98;;
27977;SDS011;15314;49.248;6.968;2022-12-31T01:00:40;10.60;;;9.65;;
27977;SDS011;15314;49.248;6.968;2022-12-31T01:01:41;10.05;;;9.32;;
27977;SDS011;15314;49.248;6.968;2022-12-31T01:02:42;9.20;;;8.57;;
27977;SDS011;15314;49.248;6.968;2022-12-31T01:03:42;9.60;;;8.63;;
27977;SDS011;15314;49.248;6.968;2022-12-31T01:04:43;9.57;;;8.88;;
27977;SDS011;15314;49.248;6.968;2022-12-31T01:05:44;9.73;;;9.13;;
27977;SDS011;15314;49.248;6.968;2022-12-31T01:06:45;9.95;;;9.25;;
27977;SDS011;15314;49.248;6.968;2022-12-31T01:07:45;9.35;;;8.68;;
27977;SDS011;15314;49.248;6.968;2022-12-31T01:08:46;10.50;;;8.98;;
27977;SDS011;15314;49.248;6.968;2022-12-31T01:09:48;10.05;;;9.35;;
27977;SDS011;15314;49.248;6.968;2022-12-31T01:10:48;9.93;;;9.07;;
27977;SDS011;15314;49.248;6.968;2022-12-31T01:12:08;10.82;;;9.88;;
27977;SDS011;15314;49.248;6.968;2022-12-31T01:13:09;10.02;;;9.07;;
27977;SDS011;15314;49.248;6.968;2022-12-31T01:14:11;9.63;;;8.95;;
27977;SDS011;15314;49.248;6.968;2022-12-31T01:15:13;9.55;;;8.90;;
27977;SDS011;15314;49.248;6.968;2022-12-31T01:16:14;9.73;;;9.00;;
27977;SDS011;15314;49.248;6.968;2022-12-31T01:17:16;10.25;;;9.30;;
27977;SDS011;15314;49.248;6.968;2022-12-31T01:18:16;9.77;;;8.93;;
27977;SDS011;15314;49.248;6.968;2022-12-31T01:19:18;11.18;;;9.30;;
27977;SDS011;15314;49.248;6.968;2022-12-31T01:20:20;10.00;;;9.32;;
27977;SDS011;15314;49.248;6.968;2022-12-31T01:21:21;10.32;;;9.38;;
27977;SDS011;15314;49.248;6.968;2022-12-31T01:22:22;9.68;;;8.98;;
27977;SDS011;15314;49.248;6.968;2022-12-31T01:23:23;10.52;;;9.63;;
27977;SDS011;15314;49.248;6.968;2022-12-31T01:24:23;9.68;;;9.07;;
27977;SDS011;15314;49.248;6.968;2022-12-31T01:25:24;9.85;;;9.25;;
27977;SDS011;15314;49.248;6.968;2022-12-31T01:26:25;10.02;;;9.23;;
27977;SDS011;15314;49.248;6.968;2022-12-31T01:27:26;9.45;;;8.80;;
27977;SDS011;15314;49.248;6.968;2022-12-31T01:28:28;10.85;;;9.98;;
27977;SDS011;15314;49.248;6.968;2022-12-31T01:29:29;10.00;;;9.30;;
27977;SDS011;15314;49.248;6.968;2022-12-31T01:30:29;10.10;;;9.40;;
27977;SDS011;15314;49.248;6.968;2022-12-31T01:31:31;10.15;;;9.35;;
27977;SDS011;15314;49.248;6.968;2022-12-31T01:32:32;9.98;;;9.25;;
27977;SDS011;15314;49.248;6.968;2022-12-31T01:33:33;10.45;;;9.82;;
27977;SDS011;15314;49.248;6.968;2022-12-31T01:34:34;10.65;;;9.77;;
27977;SDS011;15314;49.248;6.968;2022-12-31T01:35:35;9.88;;;9.10;;
27977;SDS011;15314;49.248;6.968;2022-12-31T01:36:36;11.00;;;9.90;;
27977;SDS011;15314;49.248;6.968;2022-12-31T01:37:37;10.43;;;9.73;;
27977;SDS011;15314;49.248;6.968;2022-12-31T01:38:38;11.23;;;9.07;;
27977;SDS011;15314;49.248;6.968;2022-12-31T01:39:39;9.52;;;8.85;;
27977;SDS011;15314;49.248;6.968;2022-12-31T01:40:40;10.23;;;9.32;;
27977;SDS011;15314;49.248;6.968;2022-12-31T01:41:42;10.73;;;9.75;;
27977;SDS011;15314;49.248;6.968;2022-12-31T01:42:51;10.32;;;9.50;;
27977;SDS011;15314;49.248;6.968;2022-12-31T01:44:57;9.48;;;8.98;;
27977;SDS011;15314;49.248;6.968;2022-12-31T01:45:58;9.20;;;8.60;;
27977;SDS011;15314;49.248;6.968;2022-12-31T01:46:59;9.30;;;8.57;;
27977;SDS011;15314;49.248;6.968;2022-12-31T01:48:02;10.02;;;9.25;;
27977;SDS011;15314;49.248;6.968;2022-12-31T01:49:19;9.35;;;8.75;;
27977;SDS011;15314;49.248;6.968;2022-12-31T01:50:46;9.80;;;8.95;;
27977;SDS011;15314;49.248;6.968;2022-12-31T01:51:49;9.57;;;8.82;;
27977;SDS011;15314;49.248;6.968;2022-12-31T01:52:58;10.63;;;8.50;;
27977;SDS011;15314;49.248;6.968;2022-12-31T01:54:02;9.35;;;8.73;;
27977;SDS011;15314;49.248;6.968;2022-12-31T01:55:13;9.40;;;8.73;;
27977;SDS011;15314;49.248;6.968;2022-12-31T01:56:18;9.32;;;8.43;;
27977;SDS011;15314;49.248;6.968;2022-12-31T01:57:21;9.75;;;8.95;;
27977;SDS011;15314;49.248;6.968;2022-12-31T01:58:26;9.60;;;9.05;;
27977;SDS011;15314;49.248;6.968;2022-12-31T01:59:35;10.13;;;9.15;;
27977;SDS011;15314;49.248;6.968;2022-12-31T02:00:36;9.82;;;8.98;;
27977;SDS011;15314;49.248;6.968;2022-12-31T02:01:36;9.82;;;8.93;;
27977;SDS011;15314;49.248;6.968;2022-12-31T02:02:37;10.27;;;9.30;;
27977;SDS011;15314;49.248;6.968;2022-12-31T02:03:38;10.18;;;9.15;;
27977;SDS011;15314;49.248;6.968;2022-12-31T02:04:39;10.15;;;9.40;;
27977;SDS011;15314;49.248;6.968;2022-12-31T02:05:43;10.45;;;9.65;;
27977;SDS011;15314;49.248;6.968;2022-12-31T02:07:54;10.70;;;9.05;;
27977;SDS011;15314;49.248;6.968;2022-12-31T02:08:56;9.95;;;9.02;;
27977;SDS011;15314;49.248;6.968;2022-12-31T02:09:57;10.27;;;9.55;;
27977;SDS011;15314;49.248;6.968;2022-12-31T02:10:58;10.13;;;9.30;;
27977;SDS011;15314;49.248;6.968;2022-12-31T02:11:59;10.48;;;9.77;;
27977;SDS011;15314;49.248;6.968;2022-12-31T02:13:00;10.55;;;9.63;;
27977;SDS011;15314;49.248;6.968;2022-12-31T02:14:05;9.75;;;9.15;;
27977;SDS011;15314;49.248;6.968;2022-12-31T02:15:10;12.80;;;9.15;;
27977;SDS011;15314;49.248;6.968;2022-12-31T02:16:17;9.80;;;9.05;;
27977;SDS011;15314;49.248;6.968;2022-12-31T02:18:51;9.82;;;8.90;;
27977;SDS011;15314;49.248;6.968;2022-12-31T02:21:29;10.65;;;9.65;;
27977;SDS011;15314;49.248;6.968;2022-12-31T02:24:15;9.88;;;9.07;;
27977;SDS011;15314;49.248;6.968;2022-12-31T02:31:06;9.85;;;9.15;;
27977;SDS011;15314;49.248;6.968;2022-12-31T02:32:12;10.80;;;10.13;;
27977;SDS011;15314;49.248;6.968;2022-12-31T02:34:54;9.40;;;8.70;;
27977;SDS011;15314;49.248;6.968;2022-12-31T02:36:01;10.48;;;9.68;;
27977;SDS011;15314;49.248;6.968;2022-12-31T02:37:06;9.77;;;9.27;;
27977;SDS011;15314;49.248;6.968;2022-12-31T02:38:13;10.90;;;9.80;;
27977;SDS011;15314;49.248;6.968;2022-12-31T02:39:20;9.88;;;9.27;;
27977;SDS011;15314;49.248;6.968;2022-12-31T02:40:21;10.73;;;10.02;;
27977;SDS011;15314;49.248;6.968;2022-12-31T02:41:22;10.95;;;10.05;;
27977;SDS011;15314;49.248;6.968;2022-12-31T02:42:41;11.00;;;10.18;;
27977;SDS011;15314;49.248;6.968;2022-12-31T02:43:45;10.95;;;10.13;;
27977;SDS011;15314;49.248;6.968;2022-12-31T02:44:46;10.68;;;9.77;;
27977;SDS011;15314;49.248;6.968;2022-12-31T02:45:47;10.52;;;9.73;;
27977;SDS011;15314;49.248;6.968;2022-12-31T02:49:19;10.43;;;9.73;;
27977;SDS011;15314;49.248;6.968;2022-12-31T02:50:37;10.65;;;9.95;;
27977;SDS011;15314;49.248;6.968;2022-12-31T02:51:59;10.55;;;9.82;;
27977;SDS011;15314;49.248;6.968;2022-12-31T02:55:48;10.10;;;9.45;;
27977;SDS011;15314;49.248;6.968;2022-12-31T02:57:10;9.95;;;9.35;;
27977;SDS011;15314;49.248;6.968;2022-12-31T03:00:24;9.77;;;9.27;;
27977;SDS011;15314;49.248;6.968;2022-12-31T03:01:43;9.80;;;8.95;;
27977;SDS011;15314;49.248;6.968;2022-12-31T03:03:08;9.65;;;8.93;;
27977;SDS011;15314;49.248;6.968;2022-12-31T03:04:11;8.80;;;8.27;;
27977;SDS011;15314;49.248;6.968;2022-12-31T03:05:32;10.07;;;8.68;;
27977;SDS011;15314;49.248;6.968;2022-12-31T03:06:36;9.43;;;8.93;;
27977;SDS011;15314;49.248;6.968;2022-12-31T03:07:38;9.35;;;8.75;;
27977;SDS011;15314;49.248;6.968;2022-12-31T03:08:40;9.55;;;8.77;;
27977;SDS011;15314;49.248;6.968;2022-12-31T03:10:01;9.75;;;9.15;;
27977;SDS011;15314;49.248;6.968;2022-12-31T03:11:02;9.85;;;9.00;;
27977;SDS011;15314;49.248;6.968;2022-12-31T03:12:23;9.73;;;9.02;;
27977;SDS011;15314;49.248;6.968;2022-12-31T03:13:47;8.95;;;8.50;;
27977;SDS011;15314;49.248;6.968;2022-12-31T03:14:47;9.02;;;8.52;;
27977;SDS011;15314;49.248;6.968;2022-12-31T03:15:48;9.77;;;9.07;;
27977;SDS011;15314;49.248;6.968;2022-12-31T03:16:49;8.82;;;8.30;;
27977;SDS011;15314;49.248;6.968;2022-12-31T03:18:54;9.57;;;8.98;;
27977;SDS011;15314;49.248;6.968;2022-12-31T03:20:13;8.75;;;8.23;;
27977;SDS011;15314;49.248;6.968;2022-12-31T03:21:32;10.13;;;9.27;;
27977;SDS011;15314;49.248;6.968;2022-12-31T03:22:56;8.95;;;8.35;;
27977;SDS011;15314;49.248;6.968;2022-12-31T03:23:56;9.45;;;8.90;;
27977;SDS011;15314;49.248;6.968;2022-12-31T03:25:17;9.38;;;8.60;;
27977;SDS011;15314;49.248;6.968;2022-12-31T03:26:36;8.85;;;8.35;;
27977;SDS011;15314;49.248;6.968;2022-12-31T03:27:37;10.25;;;9.52;;
27977;SDS011;15314;49.248;6.968;2022-12-31T03:28:38;9.38;;;8.63;;
27977;SDS011;15314;49.248;6.968;2022-12-31T03:29:40;8.73;;;8.30;;
27977;SDS011;15314;49.248;6.968;2022-12-31T03:30:41;9.15;;;8.57;;
27977;SDS011;15314;49.248;6.968;2022-12-31T03:31:44;9.32;;;8.63;;
27977;SDS011;15314;49.248;6.968;2022-12-31T03:32:45;9.27;;;8.52;;
27977;SDS011;15314;49.248;6.968;2022-12-31T03:33:47;9.30;;;8.70;;
27977;SDS011;15314;49.248;6.968;2022-12-31T03:34:47;9.77;;;9.13;;
27977;SDS011;15314;49.248;6.968;2022-12-31T03:35:48;9.05;;;8.45;;
27977;SDS011;15314;49.248;6.968;2022-12-31T03:36:49;9.93;;;9.02;;
27977;SDS011;15314;49.248;6.968;2022-12-31T03:37:50;9.45;;;8.68;;
27977;SDS011;15314;49.248;6.968;2022-12-31T03:38:52;9.20;;;8.57;;
27977;SDS011;15314;49.248;6.968;2022-12-31T03:39:52;9.38;;;8.77;;
27977;SDS011;15314;49.248;6.968;2022-12-31T03:40:53;8.95;;;8.40;;
27977;SDS011;15314;49.248;6.968;2022-12-31T03:41:54;9.10;;;8.60;;
27977;SDS011;15314;49.248;6.968;2022-12-31T03:42:54;9.48;;;8.88;;
27977;SDS011;15314;49.248;6.968;2022-12-31T03:43:55;8.80;;;8.10;;
27977;SDS011;15314;49.248;6.968;2022-12-31T03:44:56;8.70;;;8.15;;
27977;SDS011;15314;49.248;6.968;2022-12-31T03:45:56;9.00;;;8.50;;
27977;SDS011;15314;49.248;6.968;2022-12-31T03:46:58;9.30;;;8.68;;
27977;SDS011;15314;49.248;6.968;2022-12-31T03:47:59;9.80;;;8.85;;
27977;SDS011;15314;49.248;6.968;2022-12-31T03:49:01;8.68;;;8.18;;
27977;SDS011;15314;49.248;6.968;2022-12-31T03:50:02;9.18;;;8.57;;
27977;SDS011;15314;49.248;6.968;2022-12-31T03:51:03;8.90;;;8.45;;
27977;SDS011;15314;49.248;6.968;2022-12-31T03:52:03;9.27;;;8.35;;
27977;SDS011;15314;49.248;6.968;2022-12-31T03:53:05;9.25;;;8.55;;
27977;SDS011;15314;49.248;6.968;2022-12-31T03:54:06;8.43;;;8.02;;
27977;SDS011;15314;49.248;6.968;2022-12-31T03:55:06;8.88;;;8.32;;
27977;SDS011;15314;49.248;6.968;2022-12-31T03:56:08;9.23;;;8.57;;
27977;SDS011;15314;49.248;6.968;2022-12-31T03:57:09;8.88;;;8.18;;
27977;SDS011;15314;49.248;6.968;2022-12-31T03:58:09;8.50;;;8.00;;
27977;SDS011;15314;49.248;6.968;2022-12-31T03:59:10;8.82;;;8.23;;
27977;SDS011;15314;49.248;6.968;2022-12-31T04:00:12;9.27;;;8.68;;
27977;SDS011;15314;49.248;6.968;2022-12-31T04:01:16;9.02;;;8.48;;
27977;SDS011;15314;49.248;6.968;2022-12-31T04:02:18;8.93;;;8.30;;
27977;SDS011;15314;49.248;6.968;2022-12-31T04:03:18;8.95;;;8.45;;
27977;SDS011;15314;49.248;6.968;2022-12-31T04:04:19;8.85;;;8.45;;
27977;SDS011;15314;49.248;6.968;2022-12-31T04:05:20;9.15;;;8.50;;
27977;SDS011;15314;49.248;6.968;2022-12-31T04:06:21;9.40;;;8.80;;
27977;SDS011;15314;49.248;6.968;2022-12-31T04:07:22;8.88;;;8.38;;
27977;SDS011;15314;49.248;6.968;2022-12-31T04:08:22;9.15;;;8.65;;
27977;SDS011;15314;49.248;6.968;2022-12-31T04:09:23;9.95;;;9.15;;
27977;SDS011;15314;49.248;6.968;2022-12-31T04:10:25;9.48;;;8.90;;
27977;SDS011;15314;49.248;6.968;2022-12-31T04:11:26;9.52;;;8.98;;
27977;SDS011;15314;49.248;6.968;2022-12-31T04:12:26;9.55;;;8.90;;
27977;SDS011;15314;49.248;6.968;2022-12-31T04:13:27;9.80;;;9.05;;
27977;SDS011;15314;49.248;6.968;2022-12-31T04:14:27;9.27;;;8.77;;
27977;SDS011;15314;49.248;6.968;2022-12-31T04:15:28;9.38;;;8.90;;
27977;SDS011;15314;49.248;6.968;2022-12-31T04:16:29;8.90;;;8.40;;
27977;SDS011;15314;49.248;6.968;2022-12-31T04:17:31;9.20;;;8.70;;
27977;SDS011;15314;49.248;6.968;2022-12-31T04:18:31;9.75;;;9.05;;
27977;SDS011;15314;49.248;6.968;2022-12-31T04:19:32;9.43;;;8.85;;
27977;SDS011;15314;49.248;6.968;2022-12-31T04:20:33;8.85;;;8.10;;
27977;SDS011;15314;49.248;6.968;2022-12-31T04:21:33;8.77;;;8.20;;
27977;SDS011;15314;49.248;6.968;2022-12-31T04:22:34;8.52;;;8.10;;
27977;SDS011;15314;49.248;6.968;2022-12-31T04:23:34;8.55;;;7.88;;
27977;SDS011;15314;49.248;6.968;2022-12-31T04:24:35;8.98;;;8.30;;
27977;SDS011;15314;49.248;6.968;2022-12-31T04:25:35;8.55;;;8.05;;
27977;SDS011;15314;49.248;6.968;2022-12-31T04:26:36;9.30;;;8.70;;
27977;SDS011;15314;49.248;6.968;2022-12-31T04:27:38;9.10;;;8.55;;
27977;SDS011;15314;49.248;6.968;2022-12-31T04:28:40;8.77;;;8.25;;
27977;SDS011;15314;49.248;6.968;2022-12-31T04:29:40;8.43;;;7.93;;
27977;SDS011;15314;49.248;6.968;2022-12-31T04:30:41;9.02;;;8.43;;
27977;SDS011;15314;49.248;6.968;2022-12-31T04:31:42;9.07;;;8.38;;
27977;SDS011;15314;49.248;6.968;2022-12-31T04:32:43;8.48;;;8.07;;
27977;SDS011;15314;49.248;6.968;2022-12-31T04:33:43;8.73;;;8.20;;
27977;SDS011;15314;49.248;6.968;2022-12-31T04:34:44;9.57;;;9.07;;
27977;SDS011;15314;49.248;6.968;2022-12-31T04:35:45;9.25;;;8.73;;
27977;SDS011;15314;49.248;6.968;2022-12-31T04:36:45;8.82;;;8.35;;
27977;SDS011;15314;49.248;6.968;2022-12-31T04:37:46;8.45;;;8.05;;
27977;SDS011;15314;49.248;6.968;2022-12-31T04:38:46;9.38;;;8.68;;
27977;SDS011;15314;49.248;6.968;2022-12-31T04:39:47;9.63;;;8.90;;
27977;SDS011;15314;49.248;6.968;2022-12-31T04:40:48;8.88;;;8.38;;
27977;SDS011;15314;49.248;6.968;2022-12-31T04:42:07;8.05;;;7.65;;
27977;SDS011;15314;49.248;6.968;2022-12-31T04:43:07;9.73;;;9.18;;
27977;SDS011;15314;49.248;6.968;2022-12-31T04:44:08;8.93;;;8.52;;
27977;SDS011;15314;49.248;6.968;2022-12-31T04:45:09;9.02;;;8.38;;
27977;SDS011;15314;49.248;6.968;2022-12-31T04:46:09;9.18;;;8.57;;
27977;SDS011;15314;49.248;6.968;2022-12-31T04:47:10;9.90;;;9.30;;
27977;SDS011;15314;49.248;6.968;2022-12-31T04:48:11;9.30;;;8.73;;
27977;SDS011;15314;49.248;6.968;2022-12-31T04:49:12;9.00;;;8.60;;
27977;SDS011;15314;49.248;6.968;2022-12-31T04:50:12;8.43;;;8.02;;
27977;SDS011;15314;49.248;6.968;2022-12-31T04:51:13;8.50;;;8.10;;
27977;SDS011;15314;49.248;6.968;2022-12-31T04:52:14;9.02;;;8.50;;
27977;SDS011;15314;49.248;6.968;2022-12-31T04:53:14;9.05;;;8.55;;
27977;SDS011;15314;49.248;6.968;2022-12-31T04:54:15;8.82;;;8.43;;
27977;SDS011;15314;49.248;6.968;2022-12-31T04:55:15;8.90;;;8.40;;
27977;SDS011;15314;49.248;6.968;2022-12-31T04:56:16;9.05;;;8.45;;
27977;SDS011;15314;49.248;6.968;2022-12-31T04:57:17;8.80;;;8.20;;
27977;SDS011;15314;49.248;6.968;2022-12-31T04:58:17;8.82;;;8.43;;
27977;SDS011;15314;49.248;6.968;2022-12-31T04:59:18;9.25;;;8.63;;
27977;SDS011;15314;49.248;6.968;2022-12-31T05:00:18;8.82;;;8.23;;
27977;SDS011;15314;49.248;6.968;2022-12-31T05:01:20;8.75;;;8.35;;
27977;SDS011;15314;49.248;6.968;2022-12-31T05:02:20;8.95;;;8.50;;
27977;SDS011;15314;49.248;6.968;2022-12-31T05:03:22;9.50;;;8.90;;
27977;SDS011;15314;49.248;6.968;2022-12-31T05:04:24;8.98;;;8.48;;
27977;SDS011;15314;49.248;6.968;2022-12-31T05:05:24;8.68;;;8.27;;
27977;SDS011;15314;49.248;6.968;2022-12-31T05:06:25;8.93;;;8.48;;
27977;SDS011;15314;49.248;6.968;2022-12-31T05:07:25;9.23;;;8.73;;
27977;SDS011;15314;49.248;6.968;2022-12-31T05:08:26;8.73;;;8.32;;
27977;SDS011;15314;49.248;6.968;2022-12-31T05:09:27;8.70;;;8.30;;
27977;SDS011;15314;49.248;6.968;2022-12-31T05:10:27;8.85;;;8.45;;
27977;SDS011;15314;49.248;6.968;2022-12-31T05:11:28;8.63;;;8.23;;
27977;SDS011;15314;49.248;6.968;2022-12-31T05:12:29;8.88;;;8.48;;
27977;SDS011;15314;49.248;6.968;2022-12-31T05:13:29;9.90;;;9.20;;
27977;SDS011;15314;49.248;6.968;2022-12-31T05:14:30;8.18;;;7.78;;
27977;SDS011;15314;49.248;6.968;2022-12-31T05:15:31;8.95;;;8.32;;
27977;SDS011;15314;49.248;6.968;2022-12-31T05:16:31;8.85;;;8.35;;
27977;SDS011;15314;49.248;6.968;2022-12-31T05:17:32;8.93;;;8.43;;
27977;SDS011;15314;49.248;6.968;2022-12-31T05:18:33;9.02;;;8.43;;
27977;SDS011;15314;49.248;6.968;2022-12-31T05:19:34;8.68;;;8.38;;
27977;SDS011;15314;49.248;6.968;2022-12-31T05:20:34;8.73;;;8.20;;
27977;SDS011;15314;49.248;6.968;2022-12-31T05:21:35;9.00;;;8.40;;
27977;SDS011;15314;49.248;6.968;2022-12-31T05:22:36;9.07;;;8.57;;
27977;SDS011;15314;49.248;6.968;2022-12-31T05:23:36;8.57;;;8.18;;
27977;SDS011;15314;49.248;6.968;2022-12-31T05:24:37;8.85;;;8.40;;
27977;SDS011;15314;49.248;6.968;2022-12-31T05:25:38;9.60;;;8.93;;
27977;SDS011;15314;49.248;6.968;2022-12-31T05:26:39;8.35;;;7.95;;
27977;SDS011;15314;49.248;6.968;2022-12-31T05:27:39;8.60;;;8.20;;
27977;SDS011;15314;49.248;6.968;2022-12-31T05:28:40;8.75;;;8.35;;
27977;SDS011;15314;49.248;6.968;2022-12-31T05:29:40;9.70;;;9.20;;
27977;SDS011;15314;49.248;6.968;2022-12-31T05:30:41;9.40;;;8.80;;
27977;SDS011;15314;49.248;6.968;2022-12-31T05:31:42;8.50;;;7.93;;
27977;SDS011;15314;49.248;6.968;2022-12-31T05:32:43;8.77;;;8.27;;
27977;SDS011;15314;49.248;6.968;2022-12-31T05:33:44;9.05;;;8.45;;
27977;SDS011;15314;49.248;6.968;2022-12-31T05:34:45;8.55;;;8.15;;
27977;SDS011;15314;49.248;6.968;2022-12-31T05:35:45;8.73;;;8.15;;
27977;SDS011;15314;49.248;6.968;2022-12-31T05:36:46;10.48;;;9.55;;
27977;SDS011;15314;49.248;6.968;2022-12-31T05:37:47;9.38;;;8.68;;
27977;SDS011;15314;49.248;6.968;2022-12-31T05:38:47;9.57;;;8.90;;
27977;SDS011;15314;49.248;6.968;2022-12-31T05:39:48;9.00;;;8.40;;
27977;SDS011;15314;49.248;6.968;2022-12-31T05:40:48;9.07;;;8.52;;
27977;SDS011;15314;49.248;6.968;2022-12-31T05:41:57;8.90;;;8.50;;
27977;SDS011;15314;49.248;6.968;2022-12-31T05:42:57;9.50;;;8.75;;
27977;SDS011;15314;49.248;6.968;2022-12-31T05:43:58;9.57;;;8.90;;
27977;SDS011;15314;49.248;6.968;2022-12-31T05:44:58;8.48;;;8.07;;
27977;SDS011;15314;49.248;6.968;2022-12-31T05:46:02;8.48;;;8.07;;
27977;SDS011;15314;49.248;6.968;2022-12-31T05:47:03;9.23;;;8.48;;
27977;SDS011;15314;49.248;6.968;2022-12-31T05:48:04;8.85;;;8.45;;
27977;SDS011;15314;49.248;6.968;2022-12-31T05:49:05;8.93;;;8.43;;
27977;SDS011;15314;49.248;6.968;2022-12-31T05:50:06;9.02;;;8.40;;
27977;SDS011;15314;49.248;6.968;2022-12-31T05:51:08;9.30;;;8.80;;
27977;SDS011;15314;49.248;6.968;2022-12-31T05:52:08;8.85;;;8.30;;
27977;SDS011;15314;49.248;6.968;2022-12-31T05:53:09;9.15;;;8.75;;
27977;SDS011;15314;49.248;6.968;2022-12-31T05:54:09;9.30;;;8.80;;
27977;SDS011;15314;49.248;6.968;2022-12-31T05:55:11;9.57;;;8.77;;
27977;SDS011;15314;49.248;6.968;2022-12-31T05:56:12;9.32;;;8.82;;
27977;SDS011;15314;49.248;6.968;2022-12-31T05:57:12;9.18;;;8.55;;
27977;SDS011;15314;49.248;6.968;2022-12-31T05:58:13;9.57;;;9.18;;
27977;SDS011;15314;49.248;6.968;2022-12-31T05:59:14;10.25;;;9.45;;
27977;SDS011;15314;49.248;6.968;2022-12-31T06:00:15;9.48;;;9.05;;
27977;SDS011;15314;49.248;6.968;2022-12-31T06:01:16;10.10;;;9.20;;
27977;SDS011;15314;49.248;6.968;2022-12-31T06:02:16;9.38;;;8.90;;
27977;SDS011;15314;49.248;6.968;2022-12-31T06:03:17;9.02;;;8.63;;
27977;SDS011;15314;49.248;6.968;2022-12-31T06:04:17;9.57;;;8.90;;
27977;SDS011;15314;49.248;6.968;2022-12-31T06:05:18;9.02;;;8.55;;
27977;SDS011;15314;49.248;6.968;2022-12-31T06:06:18;9.02;;;8.63;;
27977;SDS011;15314;49.248;6.968;2022-12-31T06:07:19;9.05;;;8.45;;
27977;SDS011;15314;49.248;6.968;2022-12-31T06:08:19;9.70;;;9.05;;
27977;SDS011;15314;49.248;6.968;2022-12-31T06:09:20;9.75;;;9.23;;
27977;SDS011;15314;49.248;6.968;2022-12-31T06:10:21;9.35;;;8.75;;
27977;SDS011;15314;49.248;6.968;2022-12-31T06:11:22;10.10;;;9.45;;
27977;SDS011;15314;49.248;6.968;2022-12-31T06:12:22;9.50;;;8.90;;
27977;SDS011;15314;49.248;6.968;2022-12-31T06:13:23;9.65;;;8.73;;
27977;SDS011;15314;49.248;6.968;2022-12-31T06:14:23;9.98;;;9.38;;
27977;SDS011;15314;49.248;6.968;2022-12-31T06:15:24;9.70;;;9.10;;
27977;SDS011;15314;49.248;6.968;2022-12-31T06:16:25;9.65;;;9.02;;
27977;SDS011;15314;49.248;6.968;2022-12-31T06:17:25;8.60;;;8.20;;
27977;SDS011;15314;49.248;6.968;2022-12-31T06:18:26;9.00;;;8.40;;
27977;SDS011;15314;49.248;6.968;2022-12-31T06:19:27;10.00;;;9.25;;
27977;SDS011;15314;49.248;6.968;2022-12-31T06:20:28;9.25;;;8.75;;
27977;SDS011;15314;49.248;6.968;2022-12-31T06:21:28;9.63;;;9.02;;
27977;SDS011;15314;49.248;6.968;2022-12-31T06:22:29;9.27;;;8.68;;
27977;SDS011;15314;49.248;6.968;2022-12-31T06:23:30;9.27;;;8.75;;
27977;SDS011;15314;49.248;6.968;2022-12-31T06:24:30;9.90;;;9.30;;
27977;SDS011;15314;49.248;6.968;2022-12-31T06:25:32;9.77;;;9.18;;
27977;SDS011;15314;49.248;6.968;2022-12-31T06:26:33;9.23;;;8.48;;
27977;SDS011;15314;49.248;6.968;2022-12-31T06:27:34;9.63;;;8.90;;
27977;SDS011;15314;49.248;6.968;2022-12-31T06:28:35;9.73;;;9.13;;
27977;SDS011;15314;49.248;6.968;2022-12-31T06:29:35;9.38;;;8.88;;
27977;SDS011;15314;49.248;6.968;2022-12-31T06:30:36;8.88;;;8.30;;
27977;SDS011;15314;49.248;6.968;2022-12-31T06:31:36;9.48;;;8.95;;
27977;SDS011;15314;49.248;6.968;2022-12-31T06:32:37;9.18;;;8.68;;
27977;SDS011;15314;49.248;6.968;2022-12-31T06:33:39;8.93;;;8.25;;
27977;SDS011;15314;49.248;6.968;2022-12-31T06:34:40;9.57;;;9.05;;
27977;SDS011;15314;49.248;6.968;2022-12-31T06:35:40;8.93;;;8.43;;
27977;SDS011;15314;49.248;6.968;2022-12-31T06:36:41;8.98;;;8.38;;
27977;SDS011;15314;49.248;6.968;2022-12-31T06:37:42;8.88;;;8.38;;